sensor_id;sensor_type;location;lat;lon;timestamp;P1;durP1;ratioP1;P2;durP2;ratioP2
10761;SDS011;5433;50.862;4.320;2022-12-07T00:01:44;14.50;;;10.73;;
10761;SDS011;5433;50.862;4.320;2022-12-07T00:04:11;15.95;;;11.07;;
10761;SDS011;5433;50.862;4.320;2022-12-07T00:06:38;15.43;;;11.13;;
10761;SDS011;5433;50.862;4.320;2022-12-07T00:09:05;16.83;;;11.35;;
10761;SDS011;5433;50.862;4.320;2022-12-07T00:11:31;15.70;;;11.63;;
10761;SDS011;5433;50.862;4.320;2022-12-07T00:13:58;15.45;;;10.68;;
10761;SDS011;5433;50.862;4.320;2022-12-07T00:16:26;16.70;;;11.50;;
10761;SDS011;5433;50.862;4.320;2022-12-07T00:18:53;15.45;;;10.90;;
10761;SDS011;5433;50.862;4.320;2022-12-07T00:21:20;14.80;;;10.95;;
10761;SDS011;5433;50.862;4.320;2022-12-07T00:23:47;14.23;;;10.73;;
10761;SDS011;5433;50.862;4.320;2022-12-07T00:26:17;14.02;;;10.77;;
10761;SDS011;5433;50.862;4.320;2022-12-07T00:28:56;16.02;;;10.90;;
10761;SDS011;5433;50.862;4.320;2022-12-07T00:31:24;14.95;;;10.75;;
10761;SDS011;5433;50.862;4.320;2022-12-07T00:33:50;13.85;;;10.43;;
10761;SDS011;5433;50.862;4.320;2022-12-07T00:36:17;15.23;;;11.02;;
10761;SDS011;5433;50.862;4.320;2022-12-07T00:38:44;13.98;;;10.88;;
10761;SDS011;5433;50.862;4.320;2022-12-07T00:41:11;15.82;;;10.98;;
10761;SDS011;5433;50.862;4.320;2022-12-07T00:43:38;16.00;;;11.40;;
10761;SDS011;5433;50.862;4.320;2022-12-07T00:46:04;15.38;;;11.05;;
10761;SDS011;5433;50.862;4.320;2022-12-07T00:48:30;17.00;;;11.68;;
10761;SDS011;5433;50.862;4.320;2022-12-07T00:50:56;14.57;;;10.98;;
10761;SDS011;5433;50.862;4.320;2022-12-07T00:53:24;16.63;;;11.38;;
10761;SDS011;5433;50.862;4.320;2022-12-07T00:55:50;13.40;;;10.85;;
10761;SDS011;5433;50.862;4.320;2022-12-07T00:58:17;21.60;;;11.98;;
10761;SDS011;5433;50.862;4.320;2022-12-07T01:00:43;17.63;;;12.38;;
10761;SDS011;5433;50.862;4.320;2022-12-07T01:03:10;15.65;;;11.68;;
10761;SDS011;5433;50.862;4.320;2022-12-07T01:05:37;15.65;;;11.23;;
10761;SDS011;5433;50.862;4.320;2022-12-07T01:08:03;15.88;;;12.30;;
10761;SDS011;5433;50.862;4.320;2022-12-07T01:10:29;15.88;;;11.68;;
10761;SDS011;5433;50.862;4.320;2022-12-07T01:12:56;15.10;;;11.93;;
10761;SDS011;5433;50.862;4.320;2022-12-07T01:15:22;16.20;;;11.70;;
10761;SDS011;5433;50.862;4.320;2022-12-07T01:17:48;18.15;;;11.85;;
10761;SDS011;5433;50.862;4.320;2022-12-07T01:20:14;15.18;;;11.50;;
10761;SDS011;5433;50.862;4.320;2022-12-07T01:22:41;17.58;;;11.48;;
10761;SDS011;5433;50.862;4.320;2022-12-07T01:25:08;16.23;;;12.18;;
10761;SDS011;5433;50.862;4.320;2022-12-07T01:27:34;16.45;;;11.82;;
10761;SDS011;5433;50.862;4.320;2022-12-07T01:30:00;17.48;;;12.52;;
10761;SDS011;5433;50.862;4.320;2022-12-07T01:32:26;16.90;;;12.27;;
10761;SDS011;5433;50.862;4.320;2022-12-07T01:34:53;15.35;;;12.23;;
10761;SDS011;5433;50.862;4.320;2022-12-07T01:37:19;16.38;;;12.38;;
10761;SDS011;5433;50.862;4.320;2022-12-07T01:39:47;16.45;;;12.13;;
10761;SDS011;5433;50.862;4.320;2022-12-07T01:42:13;17.58;;;12.35;;
10761;SDS011;5433;50.862;4.320;2022-12-07T01:47:24;16.60;;;12.45;;
10761;SDS011;5433;50.862;4.320;2022-12-07T01:49:50;17.08;;;12.75;;
10761;SDS011;5433;50.862;4.320;2022-12-07T01:52:26;18.65;;;12.13;;
10761;SDS011;5433;50.862;4.320;2022-12-07T01:54:54;17.73;;;12.88;;
10761;SDS011;5433;50.862;4.320;2022-12-07T01:57:22;16.70;;;12.30;;
10761;SDS011;5433;50.862;4.320;2022-12-07T01:59:48;17.25;;;12.55;;
10761;SDS011;5433;50.862;4.320;2022-12-07T02:02:34;17.00;;;12.95;;
10761;SDS011;5433;50.862;4.320;2022-12-07T02:05:03;16.38;;;12.27;;
10761;SDS011;5433;50.862;4.320;2022-12-07T02:07:29;17.83;;;12.02;;
10761;SDS011;5433;50.862;4.320;2022-12-07T02:09:56;14.88;;;11.85;;
10761;SDS011;5433;50.862;4.320;2022-12-07T02:12:22;16.20;;;12.43;;
10761;SDS011;5433;50.862;4.320;2022-12-07T02:14:49;17.85;;;12.35;;
10761;SDS011;5433;50.862;4.320;2022-12-07T02:19:49;17.13;;;12.57;;
10761;SDS011;5433;50.862;4.320;2022-12-07T02:28:05;17.08;;;12.18;;
10761;SDS011;5433;50.862;4.320;2022-12-07T02:30:33;18.65;;;13.07;;
10761;SDS011;5433;50.862;4.320;2022-12-07T02:33:02;16.73;;;13.43;;
10761;SDS011;5433;50.862;4.320;2022-12-07T02:35:50;17.48;;;12.85;;
10761;SDS011;5433;50.862;4.320;2022-12-07T02:38:30;19.77;;;14.02;;
10761;SDS011;5433;50.862;4.320;2022-12-07T02:41:04;18.38;;;13.18;;
10761;SDS011;5433;50.862;4.320;2022-12-07T02:43:35;17.10;;;12.13;;
10761;SDS011;5433;50.862;4.320;2022-12-07T02:46:05;15.15;;;11.98;;
10761;SDS011;5433;50.862;4.320;2022-12-07T02:48:33;16.17;;;12.10;;
10761;SDS011;5433;50.862;4.320;2022-12-07T02:51:00;17.63;;;11.52;;
10761;SDS011;5433;50.862;4.320;2022-12-07T02:53:30;15.20;;;11.30;;
10761;SDS011;5433;50.862;4.320;2022-12-07T02:55:56;16.20;;;11.63;;
10761;SDS011;5433;50.862;4.320;2022-12-07T02:58:32;15.38;;;11.35;;
10761;SDS011;5433;50.862;4.320;2022-12-07T03:03:37;15.35;;;10.93;;
10761;SDS011;5433;50.862;4.320;2022-12-07T03:06:07;15.68;;;11.57;;
10761;SDS011;5433;50.862;4.320;2022-12-07T03:08:38;12.93;;;10.13;;
10761;SDS011;5433;50.862;4.320;2022-12-07T03:11:09;12.68;;;10.00;;
10761;SDS011;5433;50.862;4.320;2022-12-07T03:18:42;15.35;;;9.35;;
10761;SDS011;5433;50.862;4.320;2022-12-07T03:21:11;15.50;;;9.30;;
10761;SDS011;5433;50.862;4.320;2022-12-07T03:23:40;13.93;;;9.23;;
10761;SDS011;5433;50.862;4.320;2022-12-07T03:26:08;13.63;;;9.20;;
10761;SDS011;5433;50.862;4.320;2022-12-07T03:28:36;12.25;;;8.70;;
10761;SDS011;5433;50.862;4.320;2022-12-07T03:31:22;12.73;;;9.07;;
10761;SDS011;5433;50.862;4.320;2022-12-07T03:33:51;11.40;;;9.10;;
10761;SDS011;5433;50.862;4.320;2022-12-07T03:36:28;15.38;;;9.30;;
10761;SDS011;5433;50.862;4.320;2022-12-07T03:41:29;12.82;;;9.80;;
10761;SDS011;5433;50.862;4.320;2022-12-07T03:43:56;13.10;;;9.80;;
10761;SDS011;5433;50.862;4.320;2022-12-07T03:46:32;14.90;;;11.13;;
10761;SDS011;5433;50.862;4.320;2022-12-07T03:49:16;15.13;;;11.35;;
10761;SDS011;5433;50.862;4.320;2022-12-07T03:51:51;14.52;;;10.75;;
10761;SDS011;5433;50.862;4.320;2022-12-07T03:54:23;14.70;;;10.63;;
10761;SDS011;5433;50.862;4.320;2022-12-07T03:56:50;16.17;;;11.30;;
10761;SDS011;5433;50.862;4.320;2022-12-07T03:59:16;15.98;;;11.40;;
10761;SDS011;5433;50.862;4.320;2022-12-07T04:01:43;16.17;;;11.55;;
10761;SDS011;5433;50.862;4.320;2022-12-07T04:04:09;15.70;;;12.10;;
10761;SDS011;5433;50.862;4.320;2022-12-07T04:06:36;13.88;;;10.85;;
10761;SDS011;5433;50.862;4.320;2022-12-07T04:09:01;14.95;;;10.52;;
10761;SDS011;5433;50.862;4.320;2022-12-07T04:11:27;13.60;;;10.48;;
10761;SDS011;5433;50.862;4.320;2022-12-07T04:13:54;15.35;;;10.82;;
10761;SDS011;5433;50.862;4.320;2022-12-07T04:16:38;14.30;;;10.40;;
10761;SDS011;5433;50.862;4.320;2022-12-07T04:19:04;15.97;;;10.77;;
10761;SDS011;5433;50.862;4.320;2022-12-07T04:21:30;16.08;;;10.52;;
10761;SDS011;5433;50.862;4.320;2022-12-07T04:23:56;15.73;;;10.07;;
10761;SDS011;5433;50.862;4.320;2022-12-07T04:26:22;17.48;;;10.30;;
10761;SDS011;5433;50.862;4.320;2022-12-07T04:28:48;16.35;;;10.38;;
10761;SDS011;5433;50.862;4.320;2022-12-07T04:31:14;14.73;;;11.13;;
10761;SDS011;5433;50.862;4.320;2022-12-07T04:33:40;16.15;;;10.77;;
10761;SDS011;5433;50.862;4.320;2022-12-07T04:36:06;15.85;;;11.02;;
10761;SDS011;5433;50.862;4.320;2022-12-07T04:38:32;16.92;;;11.40;;
10761;SDS011;5433;50.862;4.320;2022-12-07T04:40:58;18.10;;;11.93;;
10761;SDS011;5433;50.862;4.320;2022-12-07T04:43:29;16.30;;;11.52;;
10761;SDS011;5433;50.862;4.320;2022-12-07T04:45:55;17.58;;;12.00;;
10761;SDS011;5433;50.862;4.320;2022-12-07T04:48:21;15.90;;;11.45;;
10761;SDS011;5433;50.862;4.320;2022-12-07T04:50:47;17.13;;;11.75;;
10761;SDS011;5433;50.862;4.320;2022-12-07T04:53:14;16.90;;;11.50;;
10761;SDS011;5433;50.862;4.320;2022-12-07T04:55:40;17.88;;;12.32;;
10761;SDS011;5433;50.862;4.320;2022-12-07T04:58:06;17.52;;;12.38;;
10761;SDS011;5433;50.862;4.320;2022-12-07T05:00:32;16.08;;;11.30;;
10761;SDS011;5433;50.862;4.320;2022-12-07T05:02:58;16.13;;;11.07;;
10761;SDS011;5433;50.862;4.320;2022-12-07T05:05:24;16.15;;;11.73;;
10761;SDS011;5433;50.862;4.320;2022-12-07T05:07:50;17.17;;;11.77;;
10761;SDS011;5433;50.862;4.320;2022-12-07T05:10:16;16.23;;;11.38;;
10761;SDS011;5433;50.862;4.320;2022-12-07T05:12:42;15.20;;;11.32;;
10761;SDS011;5433;50.862;4.320;2022-12-07T05:15:09;15.65;;;11.85;;
10761;SDS011;5433;50.862;4.320;2022-12-07T05:17:35;16.92;;;11.32;;
10761;SDS011;5433;50.862;4.320;2022-12-07T05:20:01;16.05;;;11.00;;
10761;SDS011;5433;50.862;4.320;2022-12-07T05:22:27;15.93;;;11.13;;
10761;SDS011;5433;50.862;4.320;2022-12-07T05:24:53;14.98;;;11.07;;
10761;SDS011;5433;50.862;4.320;2022-12-07T05:27:19;15.25;;;11.05;;
10761;SDS011;5433;50.862;4.320;2022-12-07T05:29:45;16.63;;;11.77;;
10761;SDS011;5433;50.862;4.320;2022-12-07T05:32:11;14.90;;;10.93;;
10761;SDS011;5433;50.862;4.320;2022-12-07T05:34:38;17.80;;;12.18;;
10761;SDS011;5433;50.862;4.320;2022-12-07T05:37:04;15.43;;;11.85;;
10761;SDS011;5433;50.862;4.320;2022-12-07T05:39:30;15.45;;;10.93;;
10761;SDS011;5433;50.862;4.320;2022-12-07T05:41:56;16.73;;;11.00;;
10761;SDS011;5433;50.862;4.320;2022-12-07T05:44:40;17.05;;;11.15;;
10761;SDS011;5433;50.862;4.320;2022-12-07T05:47:06;15.85;;;10.35;;
10761;SDS011;5433;50.862;4.320;2022-12-07T05:49:32;14.63;;;10.32;;
10761;SDS011;5433;50.862;4.320;2022-12-07T05:51:58;13.15;;;10.10;;
10761;SDS011;5433;50.862;4.320;2022-12-07T05:54:24;18.83;;;9.85;;
10761;SDS011;5433;50.862;4.320;2022-12-07T05:56:50;17.27;;;10.38;;
10761;SDS011;5433;50.862;4.320;2022-12-07T05:59:16;14.50;;;10.30;;
10761;SDS011;5433;50.862;4.320;2022-12-07T06:02:11;16.30;;;10.70;;
10761;SDS011;5433;50.862;4.320;2022-12-07T06:04:36;16.50;;;9.98;;
10761;SDS011;5433;50.862;4.320;2022-12-07T06:07:02;17.77;;;10.15;;
10761;SDS011;5433;50.862;4.320;2022-12-07T06:09:28;12.57;;;10.20;;
10761;SDS011;5433;50.862;4.320;2022-12-07T06:11:55;19.15;;;11.77;;
10761;SDS011;5433;50.862;4.320;2022-12-07T06:14:40;16.55;;;10.10;;
10761;SDS011;5433;50.862;4.320;2022-12-07T06:17:06;12.63;;;9.38;;
10761;SDS011;5433;50.862;4.320;2022-12-07T06:19:32;12.27;;;9.65;;
10761;SDS011;5433;50.862;4.320;2022-12-07T06:21:58;13.77;;;9.23;;
10761;SDS011;5433;50.862;4.320;2022-12-07T06:24:24;13.65;;;9.70;;
10761;SDS011;5433;50.862;4.320;2022-12-07T06:26:50;16.27;;;10.80;;
10761;SDS011;5433;50.862;4.320;2022-12-07T06:29:17;14.85;;;11.48;;
10761;SDS011;5433;50.862;4.320;2022-12-07T06:31:43;16.30;;;12.02;;
10761;SDS011;5433;50.862;4.320;2022-12-07T06:34:10;17.08;;;12.02;;
10761;SDS011;5433;50.862;4.320;2022-12-07T06:36:36;15.35;;;11.68;;
10761;SDS011;5433;50.862;4.320;2022-12-07T06:39:03;17.65;;;11.45;;
10761;SDS011;5433;50.862;4.320;2022-12-07T06:41:29;15.55;;;11.82;;
10761;SDS011;5433;50.862;4.320;2022-12-07T06:43:55;16.92;;;11.77;;
10761;SDS011;5433;50.862;4.320;2022-12-07T06:46:21;13.73;;;11.40;;
10761;SDS011;5433;50.862;4.320;2022-12-07T06:48:47;16.10;;;11.45;;
10761;SDS011;5433;50.862;4.320;2022-12-07T06:51:13;15.20;;;11.70;;
10761;SDS011;5433;50.862;4.320;2022-12-07T06:53:39;14.27;;;11.32;;
10761;SDS011;5433;50.862;4.320;2022-12-07T06:56:05;13.80;;;10.70;;
10761;SDS011;5433;50.862;4.320;2022-12-07T06:58:31;18.48;;;12.00;;
10761;SDS011;5433;50.862;4.320;2022-12-07T07:00:57;16.63;;;12.15;;
10761;SDS011;5433;50.862;4.320;2022-12-07T07:03:23;17.75;;;11.63;;
10761;SDS011;5433;50.862;4.320;2022-12-07T07:05:49;15.35;;;11.40;;
10761;SDS011;5433;50.862;4.320;2022-12-07T07:08:20;20.13;;;12.30;;
10761;SDS011;5433;50.862;4.320;2022-12-07T07:10:46;20.75;;;13.80;;
10761;SDS011;5433;50.862;4.320;2022-12-07T07:13:12;24.08;;;14.05;;
10761;SDS011;5433;50.862;4.320;2022-12-07T07:15:38;23.35;;;15.20;;
10761;SDS011;5433;50.862;4.320;2022-12-07T07:18:04;17.42;;;12.15;;
10761;SDS011;5433;50.862;4.320;2022-12-07T07:20:30;16.88;;;12.73;;
10761;SDS011;5433;50.862;4.320;2022-12-07T07:22:56;17.08;;;12.40;;
10761;SDS011;5433;50.862;4.320;2022-12-07T07:25:22;19.77;;;12.48;;
10761;SDS011;5433;50.862;4.320;2022-12-07T07:27:48;15.98;;;11.60;;
10761;SDS011;5433;50.862;4.320;2022-12-07T07:30:14;16.15;;;12.23;;
10761;SDS011;5433;50.862;4.320;2022-12-07T07:32:40;16.33;;;11.68;;
10761;SDS011;5433;50.862;4.320;2022-12-07T07:35:06;18.75;;;11.80;;
10761;SDS011;5433;50.862;4.320;2022-12-07T07:37:33;17.90;;;11.55;;
10761;SDS011;5433;50.862;4.320;2022-12-07T07:39:59;17.42;;;11.60;;
10761;SDS011;5433;50.862;4.320;2022-12-07T07:42:25;17.08;;;11.63;;
10761;SDS011;5433;50.862;4.320;2022-12-07T07:44:51;16.50;;;11.70;;
10761;SDS011;5433;50.862;4.320;2022-12-07T07:47:17;17.10;;;11.73;;
10761;SDS011;5433;50.862;4.320;2022-12-07T07:49:43;15.10;;;11.10;;
10761;SDS011;5433;50.862;4.320;2022-12-07T07:52:09;16.42;;;12.02;;
10761;SDS011;5433;50.862;4.320;2022-12-07T07:54:35;15.88;;;11.48;;
10761;SDS011;5433;50.862;4.320;2022-12-07T07:57:01;16.23;;;11.27;;
10761;SDS011;5433;50.862;4.320;2022-12-07T07:59:27;18.08;;;10.10;;
10761;SDS011;5433;50.862;4.320;2022-12-07T08:01:53;16.75;;;10.85;;
10761;SDS011;5433;50.862;4.320;2022-12-07T08:04:19;13.93;;;9.90;;
10761;SDS011;5433;50.862;4.320;2022-12-07T08:06:45;13.73;;;9.93;;
10761;SDS011;5433;50.862;4.320;2022-12-07T08:09:11;14.32;;;9.82;;
10761;SDS011;5433;50.862;4.320;2022-12-07T08:11:37;15.82;;;10.32;;
10761;SDS011;5433;50.862;4.320;2022-12-07T08:14:03;15.07;;;9.82;;
10761;SDS011;5433;50.862;4.320;2022-12-07T08:16:29;16.00;;;10.68;;
10761;SDS011;5433;50.862;4.320;2022-12-07T08:18:55;18.67;;;11.38;;
10761;SDS011;5433;50.862;4.320;2022-12-07T08:21:22;17.23;;;11.43;;
10761;SDS011;5433;50.862;4.320;2022-12-07T08:23:48;18.13;;;12.32;;
10761;SDS011;5433;50.862;4.320;2022-12-07T08:26:15;18.33;;;12.68;;
10761;SDS011;5433;50.862;4.320;2022-12-07T08:28:41;16.33;;;12.18;;
10761;SDS011;5433;50.862;4.320;2022-12-07T08:31:12;17.92;;;12.13;;
10761;SDS011;5433;50.862;4.320;2022-12-07T08:33:38;16.10;;;12.43;;
10761;SDS011;5433;50.862;4.320;2022-12-07T08:36:06;17.73;;;12.57;;
10761;SDS011;5433;50.862;4.320;2022-12-07T08:38:33;19.33;;;13.73;;
10761;SDS011;5433;50.862;4.320;2022-12-07T08:40:59;20.58;;;12.55;;
10761;SDS011;5433;50.862;4.320;2022-12-07T08:43:25;17.85;;;12.23;;
10761;SDS011;5433;50.862;4.320;2022-12-07T08:48:46;17.92;;;12.13;;
10761;SDS011;5433;50.862;4.320;2022-12-07T08:51:14;18.33;;;11.02;;
10761;SDS011;5433;50.862;4.320;2022-12-07T08:53:40;14.73;;;11.20;;
10761;SDS011;5433;50.862;4.320;2022-12-07T08:56:06;14.93;;;10.43;;
10761;SDS011;5433;50.862;4.320;2022-12-07T08:58:33;15.55;;;9.95;;
10761;SDS011;5433;50.862;4.320;2022-12-07T09:00:59;12.82;;;9.98;;
10761;SDS011;5433;50.862;4.320;2022-12-07T09:03:25;14.38;;;9.82;;
10761;SDS011;5433;50.862;4.320;2022-12-07T09:05:52;16.27;;;9.98;;
10761;SDS011;5433;50.862;4.320;2022-12-07T09:08:19;15.35;;;9.48;;
10761;SDS011;5433;50.862;4.320;2022-12-07T09:10:45;11.05;;;8.82;;
10761;SDS011;5433;50.862;4.320;2022-12-07T09:13:12;14.95;;;8.82;;
10761;SDS011;5433;50.862;4.320;2022-12-07T09:15:38;15.23;;;8.18;;
10761;SDS011;5433;50.862;4.320;2022-12-07T09:18:04;12.45;;;8.75;;
10761;SDS011;5433;50.862;4.320;2022-12-07T09:20:30;12.02;;;8.50;;
10761;SDS011;5433;50.862;4.320;2022-12-07T09:22:56;13.30;;;8.95;;
10761;SDS011;5433;50.862;4.320;2022-12-07T09:25:22;12.40;;;8.43;;
10761;SDS011;5433;50.862;4.320;2022-12-07T09:27:51;13.15;;;8.35;;
10761;SDS011;5433;50.862;4.320;2022-12-07T09:30:20;10.75;;;8.07;;
10761;SDS011;5433;50.862;4.320;2022-12-07T09:32:46;11.52;;;8.07;;
10761;SDS011;5433;50.862;4.320;2022-12-07T09:35:12;11.68;;;7.40;;
10761;SDS011;5433;50.862;4.320;2022-12-07T09:37:38;12.02;;;7.88;;
10761;SDS011;5433;50.862;4.320;2022-12-07T09:40:04;12.07;;;8.00;;
10761;SDS011;5433;50.862;4.320;2022-12-07T09:42:37;11.23;;;7.97;;
10761;SDS011;5433;50.862;4.320;2022-12-07T09:45:05;13.18;;;7.68;;
10761;SDS011;5433;50.862;4.320;2022-12-07T09:47:32;11.48;;;7.82;;
10761;SDS011;5433;50.862;4.320;2022-12-07T09:50:06;10.23;;;7.47;;
10761;SDS011;5433;50.862;4.320;2022-12-07T09:52:33;12.77;;;8.10;;
10761;SDS011;5433;50.862;4.320;2022-12-07T09:55:08;14.57;;;7.75;;
10761;SDS011;5433;50.862;4.320;2022-12-07T09:57:34;10.13;;;7.07;;
10761;SDS011;5433;50.862;4.320;2022-12-07T10:00:05;11.75;;;7.50;;
10761;SDS011;5433;50.862;4.320;2022-12-07T10:02:36;11.30;;;7.70;;
10761;SDS011;5433;50.862;4.320;2022-12-07T10:05:03;11.90;;;7.25;;
10761;SDS011;5433;50.862;4.320;2022-12-07T10:07:29;8.98;;;6.97;;
10761;SDS011;5433;50.862;4.320;2022-12-07T10:09:55;11.48;;;8.00;;
10761;SDS011;5433;50.862;4.320;2022-12-07T10:12:21;10.90;;;8.07;;
10761;SDS011;5433;50.862;4.320;2022-12-07T10:17:28;13.45;;;8.75;;
10761;SDS011;5433;50.862;4.320;2022-12-07T10:20:08;28.40;;;16.23;;
10761;SDS011;5433;50.862;4.320;2022-12-07T10:25:24;12.38;;;7.32;;
10761;SDS011;5433;50.862;4.320;2022-12-07T10:27:58;12.52;;;6.70;;
10761;SDS011;5433;50.862;4.320;2022-12-07T10:30:25;11.88;;;6.32;;
10761;SDS011;5433;50.862;4.320;2022-12-07T10:32:51;11.02;;;6.47;;
10761;SDS011;5433;50.862;4.320;2022-12-07T10:35:29;10.93;;;5.97;;
10761;SDS011;5433;50.862;4.320;2022-12-07T10:37:57;10.73;;;6.47;;
10761;SDS011;5433;50.862;4.320;2022-12-07T10:40:36;9.18;;;5.55;;
10761;SDS011;5433;50.862;4.320;2022-12-07T10:58:48;9.45;;;5.38;;
10761;SDS011;5433;50.862;4.320;2022-12-07T11:01:21;8.70;;;4.78;;
10761;SDS011;5433;50.862;4.320;2022-12-07T11:06:35;8.15;;;4.75;;
10761;SDS011;5433;50.862;4.320;2022-12-07T11:16:43;10.27;;;5.13;;
10761;SDS011;5433;50.862;4.320;2022-12-07T11:19:16;9.27;;;5.00;;
10761;SDS011;5433;50.862;4.320;2022-12-07T11:22:04;7.88;;;4.97;;
10761;SDS011;5433;50.862;4.320;2022-12-07T11:24:44;12.60;;;4.90;;
10761;SDS011;5433;50.862;4.320;2022-12-07T11:29:58;7.03;;;5.20;;
10761;SDS011;5433;50.862;4.320;2022-12-07T11:37:41;9.77;;;5.30;;
10761;SDS011;5433;50.862;4.320;2022-12-07T11:40:17;8.20;;;5.03;;
10761;SDS011;5433;50.862;4.320;2022-12-07T11:42:58;8.38;;;5.35;;
10761;SDS011;5433;50.862;4.320;2022-12-07T11:45:29;8.13;;;5.32;;
10761;SDS011;5433;50.862;4.320;2022-12-07T11:48:00;8.02;;;5.38;;
10761;SDS011;5433;50.862;4.320;2022-12-07T11:52:58;6.38;;;4.40;;
10761;SDS011;5433;50.862;4.320;2022-12-07T12:00:56;6.90;;;3.88;;
10761;SDS011;5433;50.862;4.320;2022-12-07T12:03:28;5.30;;;3.88;;
10761;SDS011;5433;50.862;4.320;2022-12-07T12:05:56;7.57;;;3.80;;
10761;SDS011;5433;50.862;4.320;2022-12-07T12:21:40;4.20;;;2.30;;
10761;SDS011;5433;50.862;4.320;2022-12-07T12:24:12;6.20;;;2.40;;
10761;SDS011;5433;50.862;4.320;2022-12-07T12:26:40;4.68;;;2.72;;
10761;SDS011;5433;50.862;4.320;2022-12-07T12:29:21;6.85;;;2.50;;
10761;SDS011;5433;50.862;4.320;2022-12-07T12:34:39;4.72;;;2.20;;
10761;SDS011;5433;50.862;4.320;2022-12-07T12:42:45;4.80;;;1.80;;
10761;SDS011;5433;50.862;4.320;2022-12-07T12:45:25;3.67;;;1.88;;
10761;SDS011;5433;50.862;4.320;2022-12-07T12:47:53;5.00;;;1.92;;
10761;SDS011;5433;50.862;4.320;2022-12-07T12:50:37;3.35;;;1.90;;
10761;SDS011;5433;50.862;4.320;2022-12-07T12:53:22;4.10;;;2.10;;
10761;SDS011;5433;50.862;4.320;2022-12-07T12:58:22;5.88;;;2.35;;
10761;SDS011;5433;50.862;4.320;2022-12-07T13:03:38;7.40;;;2.60;;
10761;SDS011;5433;50.862;4.320;2022-12-07T13:06:18;6.30;;;2.50;;
10761;SDS011;5433;50.862;4.320;2022-12-07T13:08:44;5.45;;;2.40;;
10761;SDS011;5433;50.862;4.320;2022-12-07T13:11:25;3.67;;;2.30;;
10761;SDS011;5433;50.862;4.320;2022-12-07T13:14:17;4.18;;;2.42;;
10761;SDS011;5433;50.862;4.320;2022-12-07T13:16:46;3.88;;;2.60;;
10761;SDS011;5433;50.862;4.320;2022-12-07T13:21:57;3.20;;;2.50;;
10761;SDS011;5433;50.862;4.320;2022-12-07T13:24:24;4.10;;;2.30;;
10761;SDS011;5433;50.862;4.320;2022-12-07T13:26:51;4.43;;;2.40;;
10761;SDS011;5433;50.862;4.320;2022-12-07T13:29:21;4.80;;;2.05;;
10761;SDS011;5433;50.862;4.320;2022-12-07T13:37:13;3.85;;;2.42;;
10761;SDS011;5433;50.862;4.320;2022-12-07T13:39:47;6.32;;;2.45;;
10761;SDS011;5433;50.862;4.320;2022-12-07T13:44:52;3.65;;;2.17;;
10761;SDS011;5433;50.862;4.320;2022-12-07T13:47:32;4.05;;;2.40;;
10761;SDS011;5433;50.862;4.320;2022-12-07T13:50:00;4.60;;;2.50;;
10761;SDS011;5433;50.862;4.320;2022-12-07T13:52:28;4.15;;;2.30;;
10761;SDS011;5433;50.862;4.320;2022-12-07T13:57:26;10.75;;;7.28;;
10761;SDS011;5433;50.862;4.320;2022-12-07T13:59:53;5.10;;;2.90;;
10761;SDS011;5433;50.862;4.320;2022-12-07T14:02:26;2.83;;;2.30;;
10761;SDS011;5433;50.862;4.320;2022-12-07T14:05:05;3.60;;;2.55;;
10761;SDS011;5433;50.862;4.320;2022-12-07T14:07:31;3.08;;;2.67;;
10761;SDS011;5433;50.862;4.320;2022-12-07T14:10:04;4.68;;;2.15;;
10761;SDS011;5433;50.862;4.320;2022-12-07T14:12:30;3.58;;;1.67;;
10761;SDS011;5433;50.862;4.320;2022-12-07T14:14:57;3.53;;;2.15;;
10761;SDS011;5433;50.862;4.320;2022-12-07T14:17:24;4.50;;;2.10;;
10761;SDS011;5433;50.862;4.320;2022-12-07T14:19:54;3.72;;;2.15;;
10761;SDS011;5433;50.862;4.320;2022-12-07T14:22:22;4.53;;;2.03;;
10761;SDS011;5433;50.862;4.320;2022-12-07T14:24:49;4.45;;;1.73;;
10761;SDS011;5433;50.862;4.320;2022-12-07T14:27:22;3.50;;;1.80;;
10761;SDS011;5433;50.862;4.320;2022-12-07T14:29:50;3.17;;;1.90;;
10761;SDS011;5433;50.862;4.320;2022-12-07T14:32:24;3.03;;;1.80;;
10761;SDS011;5433;50.862;4.320;2022-12-07T14:35:03;3.17;;;1.60;;
10761;SDS011;5433;50.862;4.320;2022-12-07T14:37:29;5.10;;;1.70;;
10761;SDS011;5433;50.862;4.320;2022-12-07T14:39:56;16.75;;;10.20;;
10761;SDS011;5433;50.862;4.320;2022-12-07T14:42:23;2.83;;;2.00;;
10761;SDS011;5433;50.862;4.320;2022-12-07T14:44:49;5.03;;;1.98;;
10761;SDS011;5433;50.862;4.320;2022-12-07T14:47:15;3.08;;;1.95;;
10761;SDS011;5433;50.862;4.320;2022-12-07T14:49:41;2.35;;;1.83;;
10761;SDS011;5433;50.862;4.320;2022-12-07T14:52:11;5.97;;;2.30;;
10761;SDS011;5433;50.862;4.320;2022-12-07T14:54:38;5.90;;;2.25;;
10761;SDS011;5433;50.862;4.320;2022-12-07T14:57:04;5.35;;;2.22;;
10761;SDS011;5433;50.862;4.320;2022-12-07T14:59:31;3.72;;;2.30;;
10761;SDS011;5433;50.862;4.320;2022-12-07T15:01:57;6.05;;;3.88;;
10761;SDS011;5433;50.862;4.320;2022-12-07T15:04:23;3.92;;;2.53;;
10761;SDS011;5433;50.862;4.320;2022-12-07T15:06:58;5.25;;;3.05;;
10761;SDS011;5433;50.862;4.320;2022-12-07T15:09:25;9.82;;;7.72;;
10761;SDS011;5433;50.862;4.320;2022-12-07T15:11:51;5.28;;;2.85;;
10761;SDS011;5433;50.862;4.320;2022-12-07T15:14:17;9.35;;;5.28;;
10761;SDS011;5433;50.862;4.320;2022-12-07T15:16:43;9.15;;;5.85;;
10761;SDS011;5433;50.862;4.320;2022-12-07T15:19:16;11.00;;;5.88;;
10761;SDS011;5433;50.862;4.320;2022-12-07T15:21:43;3.67;;;2.55;;
10761;SDS011;5433;50.862;4.320;2022-12-07T15:24:12;14.68;;;9.90;;
10761;SDS011;5433;50.862;4.320;2022-12-07T15:26:38;4.22;;;2.30;;
10761;SDS011;5433;50.862;4.320;2022-12-07T15:29:04;4.18;;;2.53;;
10761;SDS011;5433;50.862;4.320;2022-12-07T15:31:31;6.45;;;2.47;;
10761;SDS011;5433;50.862;4.320;2022-12-07T15:33:57;6.40;;;2.83;;
10761;SDS011;5433;50.862;4.320;2022-12-07T15:36:25;4.13;;;2.40;;
10761;SDS011;5433;50.862;4.320;2022-12-07T15:38:51;6.47;;;2.58;;
10761;SDS011;5433;50.862;4.320;2022-12-07T15:41:18;5.97;;;2.90;;
10761;SDS011;5433;50.862;4.320;2022-12-07T15:43:43;3.85;;;2.60;;
10761;SDS011;5433;50.862;4.320;2022-12-07T15:46:32;4.82;;;2.92;;
10761;SDS011;5433;50.862;4.320;2022-12-07T15:48:58;4.43;;;2.78;;
10761;SDS011;5433;50.862;4.320;2022-12-07T15:51:24;6.00;;;3.00;;
10761;SDS011;5433;50.862;4.320;2022-12-07T15:53:51;4.90;;;3.58;;
10761;SDS011;5433;50.862;4.320;2022-12-07T15:56:17;6.05;;;3.25;;
10761;SDS011;5433;50.862;4.320;2022-12-07T15:58:43;6.25;;;4.07;;
10761;SDS011;5433;50.862;4.320;2022-12-07T16:01:10;6.95;;;3.80;;
10761;SDS011;5433;50.862;4.320;2022-12-07T16:03:36;7.57;;;4.57;;
10761;SDS011;5433;50.862;4.320;2022-12-07T16:06:02;6.38;;;4.38;;
10761;SDS011;5433;50.862;4.320;2022-12-07T16:08:28;7.88;;;4.07;;
10761;SDS011;5433;50.862;4.320;2022-12-07T16:10:53;7.72;;;3.78;;
10761;SDS011;5433;50.862;4.320;2022-12-07T16:13:19;8.40;;;4.10;;
10761;SDS011;5433;50.862;4.320;2022-12-07T16:15:46;7.65;;;4.50;;
10761;SDS011;5433;50.862;4.320;2022-12-07T16:18:12;7.68;;;4.70;;
10761;SDS011;5433;50.862;4.320;2022-12-07T16:20:38;8.38;;;4.25;;
10761;SDS011;5433;50.862;4.320;2022-12-07T16:23:04;7.28;;;4.22;;
10761;SDS011;5433;50.862;4.320;2022-12-07T16:25:30;9.40;;;5.30;;
10761;SDS011;5433;50.862;4.320;2022-12-07T16:27:56;8.85;;;4.47;;
10761;SDS011;5433;50.862;4.320;2022-12-07T16:30:22;9.05;;;5.75;;
10761;SDS011;5433;50.862;4.320;2022-12-07T16:32:48;6.93;;;5.05;;
10761;SDS011;5433;50.862;4.320;2022-12-07T16:35:13;7.68;;;5.05;;
10761;SDS011;5433;50.862;4.320;2022-12-07T16:37:41;9.57;;;4.80;;
10761;SDS011;5433;50.862;4.320;2022-12-07T16:40:07;8.43;;;4.45;;
10761;SDS011;5433;50.862;4.320;2022-12-07T16:42:34;8.63;;;4.97;;
10761;SDS011;5433;50.862;4.320;2022-12-07T16:45:00;8.27;;;5.00;;